Poperinge, Belgium
Current Conditions -  °F | °C
As of 10:20 AM on Thursday 18 Dec 2014 (Local Time) from EBOS Reporting Station
Broken Clouds Broken Clouds  
Wind Chill: 54°   Ceiling: 1700
Heat Index: 54°   Visibility: 6mi
Dew Point: 50°   Wind: 23mph
Humidity: 88%   Direction: 240°WSW
Pressure: 29.85"   Gusts: 35mph
Location:  50.85°N, 2.73°E
Report Text: EBOS 180920Z 24020G30KT 9999 FEW008 BKN017 12/10 Q1011 TEMPO BKN013
Loading
Personal Weather Stations






























Interactive Weather Map New forecast layout! Learn more

10-Day Weather Forecast

Advertisements
Track Severe Weather on mobile